createdAt,value
2023-04-18T00:00:02.858Z,82.4939
2023-04-18T00:01:03.924Z,82.4677
2023-04-18T00:02:05.116Z,82.3592
2023-04-18T00:03:06.695Z,82.3470
2023-04-18T00:04:08.528Z,82.3977
2023-04-18T00:05:09.883Z,82.0752
2023-04-18T00:06:11.000Z,82.2672
2023-04-18T00:07:12.160Z,82.8414
2023-04-18T00:08:13.294Z,82.6874
2023-04-18T00:09:14.560Z,82.4877
2023-04-18T00:10:15.669Z,81.7754
2023-04-18T00:11:16.747Z,81.7906
2023-04-18T00:12:17.831Z,81.9224
2023-04-18T00:13:18.972Z,82.4462
2023-04-18T00:14:20.067Z,82.3541
2023-04-18T00:15:21.178Z,81.8440
2023-04-18T00:16:22.314Z,81.9765
2023-04-18T00:17:23.505Z,81.9689
2023-04-18T00:18:24.622Z,81.6911
2023-04-18T00:19:25.739Z,81.4115
2023-04-18T00:20:26.854Z,81.3183
2023-04-18T00:21:27.951Z,81.8334
2023-04-18T00:22:29.078Z,81.2273
2023-04-18T00:23:30.233Z,81.2523
2023-04-18T00:24:31.319Z,81.4564
2023-04-18T00:25:32.447Z,81.5360
2023-04-18T00:26:33.517Z,81.8952
2023-04-18T00:27:34.695Z,81.5564
2023-04-18T00:28:35.764Z,81.3329
2023-04-18T00:29:36.928Z,81.1822
2023-04-18T00:30:38.092Z,81.0417
2023-04-18T00:31:39.181Z,81.0328
2023-04-18T00:32:40.314Z,81.0244
2023-04-18T00:33:41.387Z,81.1566
2023-04-18T00:34:42.551Z,81.2642
2023-04-18T00:35:43.678Z,81.3635
2023-04-18T00:36:44.763Z,81.3017
2023-04-18T00:37:45.841Z,81.3822
2023-04-18T00:38:46.958Z,81.7023
2023-04-18T00:39:48.094Z,81.3866
2023-04-18T00:40:49.246Z,81.3547
2023-04-18T00:41:50.364Z,81.3864
2023-04-18T00:42:51.431Z,81.2201
2023-04-18T00:43:52.705Z,81.3424
2023-04-18T00:44:53.736Z,81.6559
2023-04-18T00:45:54.861Z,81.7874
2023-04-18T00:46:55.940Z,81.8601
2023-04-18T00:47:57.012Z,81.6903
2023-04-18T00:48:58.095Z,81.6583
2023-04-18T00:49:59.227Z,81.6996
2023-04-18T00:51:00.303Z,81.7579
2023-04-18T00:52:01.393Z,81.8770
2023-04-18T00:53:02.507Z,81.8045
2023-04-18T00:54:03.632Z,81.6480
2023-04-18T00:55:04.714Z,81.5837
2023-04-18T00:56:05.833Z,81.5978
2023-04-18T00:57:06.915Z,81.6248
2023-04-18T00:58:08.013Z,81.8057
2023-04-18T00:59:09.071Z,81.8519
2023-04-18T01:00:10.194Z,81.7863
2023-04-18T01:01:11.341Z,81.8499
2023-04-18T01:02:12.503Z,81.8007
2023-04-18T01:03:13.766Z,81.7688
2023-04-18T01:04:15.137Z,81.7653
2023-04-18T01:05:16.646Z,82.1752
2023-04-18T01:06:17.770Z,82.2518
2023-04-18T01:07:18.891Z,81.6179
2023-04-18T01:08:19.965Z,81.7182
2023-04-18T01:09:21.087Z,81.5179
2023-04-18T01:10:22.223Z,81.5177
2023-04-18T01:11:23.510Z,81.3959
2023-04-18T01:12:24.584Z,81.4867
2023-04-18T01:13:25.724Z,81.3480
2023-04-18T01:14:26.773Z,81.4681
2023-04-18T01:15:27.921Z,81.4300
2023-04-18T01:16:29.032Z,81.4065
2023-04-18T01:17:30.219Z,81.2074
2023-04-18T01:18:31.362Z,81.4836
2023-04-18T01:19:32.717Z,81.2859
2023-04-18T01:20:33.873Z,81.3914
2023-04-18T01:21:35.023Z,81.6135
2023-04-18T01:22:36.166Z,81.4369
2023-04-18T01:23:37.283Z,81.3634
2023-04-18T01:24:38.377Z,81.5294
2023-04-18T01:25:39.626Z,81.3785
2023-04-18T01:26:40.665Z,81.4300
2023-04-18T01:27:41.824Z,81.4562
2023-04-18T01:28:42.925Z,81.4531
2023-04-18T01:29:44.016Z,81.4042
2023-04-18T01:30:45.224Z,81.5732
2023-04-18T01:31:46.431Z,81.9442
2023-04-18T01:32:47.573Z,81.6347
2023-04-18T01:33:48.669Z,81.8112
2023-04-18T01:34:49.765Z,81.7907
2023-04-18T01:35:51.099Z,81.8451
2023-04-18T01:36:52.150Z,81.8897
2023-04-18T01:37:53.215Z,81.8584
2023-04-18T01:38:54.348Z,81.9887
2023-04-18T01:39:55.510Z,81.9534
2023-04-18T01:40:56.603Z,81.9084
2023-04-18T01:41:57.862Z,81.6601
2023-04-18T01:42:58.942Z,81.5520
2023-04-18T01:44:00.016Z,81.6538
2023-04-18T01:45:01.140Z,81.5433
2023-04-18T01:46:02.301Z,81.6882
2023-04-18T01:47:03.440Z,81.7769
2023-04-18T01:48:04.552Z,81.8377
2023-04-18T01:49:05.640Z,82.0317
2023-04-18T01:50:06.743Z,82.1556
2023-04-18T01:51:07.852Z,82.6004
2023-04-18T01:52:09.020Z,82.0282
2023-04-18T01:53:10.465Z,81.9147
2023-04-18T01:54:11.823Z,81.9033
2023-04-18T01:55:13.442Z,81.8989
2023-04-18T01:56:14.535Z,81.7706
2023-04-18T01:57:15.646Z,81.7070
2023-04-18T01:58:16.748Z,81.6813
2023-04-18T01:59:17.955Z,81.8858
2023-04-18T02:00:19.109Z,81.8974
2023-04-18T02:01:20.340Z,81.9395
2023-04-18T02:02:21.768Z,81.9705
2023-04-18T02:03:23.273Z,82.2138
2023-04-18T02:04:24.484Z,82.0056
2023-04-18T02:05:25.601Z,82.1510
2023-04-18T02:06:26.995Z,82.1106
2023-04-18T02:07:28.151Z,82.1397
2023-04-18T02:08:29.272Z,82.0563
2023-04-18T02:09:30.388Z,82.3879
2023-04-18T02:10:31.523Z,82.5246
2023-04-18T02:11:32.673Z,82.4992
2023-04-18T02:12:33.753Z,82.3007
2023-04-18T02:13:35.033Z,82.5747
2023-04-18T02:14:36.385Z,82.8531
2023-04-18T02:15:37.549Z,82.5531
2023-04-18T02:16:38.708Z,82.5474
2023-04-18T02:17:39.799Z,82.4633
2023-04-18T02:18:40.960Z,82.6478
2023-04-18T02:19:42.086Z,82.7697
2023-04-18T02:20:43.212Z,82.5191
2023-04-18T02:21:44.324Z,82.7050
2023-04-18T02:22:45.481Z,83.0865
2023-04-18T02:23:46.600Z,83.1382
2023-04-18T02:24:47.707Z,83.0824
2023-04-18T02:25:48.804Z,83.3310
2023-04-18T02:26:49.927Z,83.5239
2023-04-18T02:27:51.034Z,83.3773
2023-04-18T02:28:52.266Z,83.4072
2023-04-18T02:29:53.442Z,83.4344
2023-04-18T02:30:54.576Z,83.2698
2023-04-18T02:31:55.785Z,83.0977
2023-04-18T02:32:56.977Z,83.0145
2023-04-18T02:33:59.219Z,83.2960
2023-04-18T02:35:00.317Z,83.2443
2023-04-18T02:36:01.426Z,83.1531
2023-04-18T02:37:02.576Z,83.2155
2023-04-18T02:38:03.807Z,83.2738
2023-04-18T02:39:04.936Z,83.1440
2023-04-18T02:40:06.061Z,83.0795
2023-04-18T02:41:07.203Z,83.1899
2023-04-18T02:42:08.335Z,83.2108
2023-04-18T02:43:09.510Z,83.2337
2023-04-18T02:44:10.626Z,83.3560
2023-04-18T02:45:11.856Z,83.5443
2023-04-18T02:46:13.041Z,83.3927
2023-04-18T02:47:14.188Z,83.2496
2023-04-18T02:48:15.424Z,83.2605
2023-04-18T02:49:16.595Z,83.4389
2023-04-18T02:50:17.673Z,83.3775
2023-04-18T02:51:18.908Z,83.4578
2023-04-18T02:52:20.047Z,83.4496
2023-04-18T02:53:21.211Z,83.4389
2023-04-18T02:54:22.307Z,83.3586
2023-04-18T02:55:23.455Z,83.2770
2023-04-18T02:56:24.539Z,83.2348
2023-04-18T02:57:25.643Z,83.2528
2023-04-18T02:58:26.784Z,83.1570
2023-04-18T02:59:27.924Z,83.3602
2023-04-18T03:00:29.047Z,83.8639
2023-04-18T03:01:30.199Z,83.9279
2023-04-18T03:02:31.454Z,83.6457
2023-04-18T03:03:32.742Z,83.7161
2023-04-18T03:04:33.945Z,83.8106
2023-04-18T03:05:35.159Z,83.7784
2023-04-18T03:06:36.288Z,83.8508
2023-04-18T03:07:37.428Z,83.5699
2023-04-18T03:08:38.533Z,83.6412
2023-04-18T03:09:39.674Z,83.8259
2023-04-18T03:10:40.812Z,83.8372
2023-04-18T03:11:42.104Z,83.7600
2023-04-18T03:12:43.249Z,83.7827
2023-04-18T03:13:44.410Z,84.0720
2023-04-18T03:14:45.548Z,84.0069
2023-04-18T03:15:46.708Z,83.9817
2023-04-18T03:16:47.812Z,84.0407
2023-04-18T03:17:49.136Z,84.0155
2023-04-18T03:18:50.280Z,84.0830
2023-04-18T03:19:51.459Z,83.9089
2023-04-18T03:20:52.653Z,83.8711
2023-04-18T03:21:53.798Z,83.7801
2023-04-18T03:22:55.022Z,84.0006
2023-04-18T03:23:56.120Z,83.9233
2023-04-18T03:24:57.230Z,83.8331
2023-04-18T03:25:58.346Z,84.0311
2023-04-18T03:26:59.532Z,83.9573
2023-04-18T03:28:00.706Z,83.8828
2023-04-18T03:29:01.945Z,83.8662
2023-04-18T03:30:03.139Z,83.9405
2023-04-18T03:31:04.389Z,83.9700
2023-04-18T03:32:05.533Z,84.0823
2023-04-18T03:33:06.625Z,84.0093
2023-04-18T03:34:07.800Z,83.8219
2023-04-18T03:35:08.967Z,83.5563
2023-04-18T03:36:10.095Z,83.8652
2023-04-18T03:37:11.204Z,83.9912
2023-04-18T03:38:12.375Z,84.0159
2023-04-18T03:39:13.485Z,83.8764
2023-04-18T03:40:14.640Z,83.8857
2023-04-18T03:41:15.765Z,83.8799
2023-04-18T03:42:16.923Z,83.9660
2023-04-18T03:43:18.076Z,84.0684
2023-04-18T03:44:19.250Z,83.9886
2023-04-18T03:45:20.425Z,84.0494
2023-04-18T03:46:21.616Z,84.0736
2023-04-18T03:47:22.749Z,84.0525
2023-04-18T03:48:23.915Z,83.8060
2023-04-18T03:49:25.036Z,83.5209
2023-04-18T03:50:26.265Z,83.7568
2023-04-18T03:51:27.363Z,83.7816
2023-04-18T03:52:29.830Z,83.6023
2023-04-18T03:53:28.775Z,83.4349
2023-04-18T03:54:29.916Z,83.5719
2023-04-18T03:55:31.065Z,83.6205
2023-04-18T03:56:32.182Z,83.4598
2023-04-18T03:57:33.277Z,83.1863
2023-04-18T03:58:34.403Z,82.9945
2023-04-18T03:59:35.529Z,83.3773
2023-04-18T04:00:36.694Z,83.2814
2023-04-18T04:01:37.909Z,83.3766
2023-04-18T04:02:39.149Z,83.5237
2023-04-18T04:03:40.409Z,83.4764
2023-04-18T04:04:41.913Z,83.5364
2023-04-18T04:05:43.044Z,83.4341
2023-04-18T04:06:44.184Z,83.5023
2023-04-18T04:07:45.378Z,83.6903
2023-04-18T04:08:46.565Z,83.6266
2023-04-18T04:09:47.681Z,83.5696
2023-04-18T04:10:48.843Z,83.6528
2023-04-18T04:11:50.008Z,83.7173
2023-04-18T04:12:51.131Z,83.6698
2023-04-18T04:13:52.282Z,83.7007
2023-04-18T04:14:53.457Z,83.7680
2023-04-18T04:15:54.620Z,83.7331
2023-04-18T04:16:55.781Z,83.8065
2023-04-18T04:17:57.080Z,83.6577
2023-04-18T04:18:58.261Z,83.7107
2023-04-18T04:19:59.372Z,83.7629
2023-04-18T04:21:00.531Z,83.7253
2023-04-18T04:22:01.610Z,83.6987
2023-04-18T04:23:02.796Z,83.7060
2023-04-18T04:24:03.952Z,83.6628
2023-04-18T04:25:05.083Z,83.6638
2023-04-18T04:26:06.202Z,83.6137
2023-04-18T04:27:07.377Z,83.5900
2023-04-18T04:28:08.591Z,83.9878
2023-04-18T04:29:09.716Z,83.5454
2023-04-18T04:30:13.308Z,83.5782
2023-04-18T04:31:12.133Z,83.6029
2023-04-18T04:32:13.324Z,83.4284
2023-04-18T04:33:14.535Z,83.4700
2023-04-18T04:34:15.958Z,83.3637
2023-04-18T04:35:17.311Z,83.5301
2023-04-18T04:36:19.006Z,83.6817
2023-04-18T04:37:20.245Z,83.7722
2023-04-18T04:38:21.440Z,83.8886
2023-04-18T04:39:22.618Z,84.0830
2023-04-18T04:40:23.733Z,84.0341
2023-04-18T04:41:24.910Z,83.7795
2023-04-18T04:42:26.052Z,83.7247
2023-04-18T04:43:27.208Z,83.7524
2023-04-18T04:44:28.364Z,83.8630
2023-04-18T04:45:29.569Z,83.6935
2023-04-18T04:46:30.684Z,83.8510
2023-04-18T04:47:31.947Z,84.3040
2023-04-18T04:48:33.212Z,83.8186
2023-04-18T04:49:34.412Z,83.7403
2023-04-18T04:50:35.583Z,83.6912
2023-04-18T04:51:36.804Z,83.4495
2023-04-18T04:52:37.990Z,83.7747
2023-04-18T04:53:39.376Z,83.4627
2023-04-18T04:54:40.800Z,83.8242
2023-04-18T04:55:42.007Z,83.8691
2023-04-18T04:56:43.169Z,83.8600
2023-04-18T04:57:44.322Z,83.9301
2023-04-18T04:58:45.445Z,84.0890
2023-04-18T04:59:46.571Z,84.0686
2023-04-18T05:00:47.733Z,84.0056
2023-04-18T05:01:48.994Z,83.9473
2023-04-18T05:02:50.520Z,83.9065
2023-04-18T05:03:51.984Z,83.8391
2023-04-18T05:04:53.188Z,83.9010
2023-04-18T05:05:54.361Z,83.8114
2023-04-18T05:06:55.440Z,83.8364
2023-04-18T05:07:56.593Z,84.0550
2023-04-18T05:08:57.819Z,84.2216
2023-04-18T05:09:58.985Z,83.9530
2023-04-18T05:11:00.168Z,83.7365
2023-04-18T05:12:01.421Z,83.7115
2023-04-18T05:13:02.588Z,83.8554
2023-04-18T05:14:03.781Z,84.0306
2023-04-18T05:15:04.934Z,84.1580
2023-04-18T05:16:06.154Z,84.1605
2023-04-18T05:17:07.354Z,84.3095
2023-04-18T05:18:08.632Z,84.3527
2023-04-18T05:19:09.819Z,84.2041
2023-04-18T05:20:10.956Z,84.2042
2023-04-18T05:21:12.182Z,83.9275
2023-04-18T05:22:13.320Z,83.7538
2023-04-18T05:23:14.486Z,83.8396
2023-04-18T05:24:15.955Z,83.7927
2023-04-18T05:25:17.374Z,83.9076
2023-04-18T05:26:18.502Z,84.0064
2023-04-18T05:27:19.637Z,83.9114
2023-04-18T05:28:20.749Z,83.9008
2023-04-18T05:29:21.950Z,83.8830
2023-04-18T05:30:23.050Z,83.7879
2023-04-18T05:31:24.194Z,83.5392
2023-04-18T05:32:25.366Z,83.4054
2023-04-18T05:33:26.466Z,83.5540
2023-04-18T05:34:27.651Z,83.4709
2023-04-18T05:35:28.769Z,83.3285
2023-04-18T05:36:29.876Z,83.2088
2023-04-18T05:37:31.047Z,83.4776
2023-04-18T05:38:32.216Z,83.4546
2023-04-18T05:39:33.373Z,83.6274
2023-04-18T05:40:34.471Z,83.8180
2023-04-18T05:41:35.645Z,83.8187
2023-04-18T05:42:36.762Z,83.8668
2023-04-18T05:43:38.001Z,83.7278
2023-04-18T05:44:39.097Z,83.5884
2023-04-18T05:45:40.277Z,83.6933
2023-04-18T05:46:41.524Z,83.9156
2023-04-18T05:47:42.740Z,84.1018
2023-04-18T05:48:43.913Z,83.9987
2023-04-18T05:49:45.029Z,83.8423
2023-04-18T05:50:46.228Z,83.5950
2023-04-18T05:51:47.367Z,83.4903
2023-04-18T05:52:48.473Z,83.5914
2023-04-18T05:53:49.640Z,83.4869
2023-04-18T05:54:50.766Z,83.4225
2023-04-18T05:55:51.889Z,83.5644
2023-04-18T05:56:53.048Z,83.6178
2023-04-18T05:57:54.219Z,83.4814
2023-04-18T05:58:55.344Z,83.5193
2023-04-18T05:59:56.487Z,83.6215
2023-04-18T06:00:57.620Z,83.6699
2023-04-18T06:01:58.805Z,83.4600
2023-04-18T06:03:00.150Z,83.7389
2023-04-18T06:04:01.814Z,83.8964
2023-04-18T06:05:03.319Z,83.7509
2023-04-18T06:06:04.762Z,83.8026
2023-04-18T06:07:05.909Z,83.9416
2023-04-18T06:08:07.151Z,83.7522
2023-04-18T06:09:08.244Z,83.8661
2023-04-18T06:10:09.386Z,83.6267
2023-04-18T06:11:10.522Z,83.6409
2023-04-18T06:12:11.874Z,84.0626
2023-04-18T06:13:13.175Z,83.7803
2023-04-18T06:14:14.442Z,83.6934
2023-04-18T06:15:15.682Z,83.8774
2023-04-18T06:16:16.957Z,83.8530
2023-04-18T06:17:18.154Z,83.9261
2023-04-18T06:18:19.319Z,83.7022
2023-04-18T06:19:20.546Z,83.7844
2023-04-18T06:20:21.695Z,83.5770
2023-04-18T06:21:22.880Z,83.5904
2023-04-18T06:22:23.995Z,83.4561
2023-04-18T06:23:25.185Z,83.2892
2023-04-18T06:24:26.380Z,83.3038
2023-04-18T06:25:27.536Z,83.3341
2023-04-18T06:26:28.748Z,83.2738
2023-04-18T06:27:31.922Z,83.4103
2023-04-18T06:28:30.627Z,83.2602
2023-04-18T06:29:31.780Z,83.1979
2023-04-18T06:30:32.913Z,83.1680
2023-04-18T06:31:34.054Z,83.0603
2023-04-18T06:32:35.304Z,83.1609
2023-04-18T06:33:36.700Z,83.1370
2023-04-18T06:34:37.870Z,83.3117
2023-04-18T06:35:39.079Z,83.1758
2023-04-18T06:36:40.209Z,82.9145
2023-04-18T06:37:41.348Z,82.8899
2023-04-18T06:38:42.478Z,83.0095
2023-04-18T06:39:43.605Z,83.0208
2023-04-18T06:40:44.806Z,82.9288
2023-04-18T06:41:45.929Z,83.1429
2023-04-18T06:42:47.084Z,83.4797
2023-04-18T06:44:02.109Z,83.3379
2023-04-18T06:44:50.029Z,83.4051
2023-04-18T06:45:51.207Z,83.4203
2023-04-18T06:46:52.377Z,83.1199
2023-04-18T06:47:53.560Z,83.3223
2023-04-18T06:48:54.703Z,83.3764
2023-04-18T06:49:55.861Z,83.5940
2023-04-18T06:50:56.992Z,83.3770
2023-04-18T06:51:58.105Z,83.4299
2023-04-18T06:52:59.352Z,83.4186
2023-04-18T06:54:00.466Z,83.4122
2023-04-18T06:55:01.670Z,83.3052
2023-04-18T06:56:02.916Z,83.4146
2023-04-18T06:57:04.092Z,83.6194
2023-04-18T06:58:05.263Z,83.3864
2023-04-18T06:59:06.501Z,83.6059
2023-04-18T07:00:07.687Z,83.4457
2023-04-18T07:01:08.925Z,83.3109
2023-04-18T07:02:10.379Z,83.4071
2023-04-18T07:03:11.920Z,83.3636
2023-04-18T07:04:13.655Z,83.4654
2023-04-18T07:05:15.395Z,83.5699
2023-04-18T07:06:16.576Z,83.6456
2023-04-18T07:07:17.766Z,83.7440
2023-04-18T07:08:18.938Z,83.7143
2023-04-18T07:09:20.179Z,83.6864
2023-04-18T07:10:21.354Z,83.5386
2023-04-18T07:11:22.521Z,83.4232
2023-04-18T07:12:23.743Z,83.5915
2023-04-18T07:13:24.881Z,83.2835
2023-04-18T07:14:26.118Z,83.1879
2023-04-18T07:15:27.305Z,83.1579
2023-04-18T07:16:28.552Z,83.1791
2023-04-18T07:17:29.766Z,83.1921
2023-04-18T07:18:37.864Z,82.9250
2023-04-18T07:19:32.796Z,83.0652
2023-04-18T07:20:34.032Z,82.9889
2023-04-18T07:21:35.233Z,82.8653
2023-04-18T07:22:36.419Z,82.9446
2023-04-18T07:23:37.596Z,82.7756
2023-04-18T07:24:38.796Z,82.9435
2023-04-18T07:25:40.037Z,82.7456
2023-04-18T07:26:41.206Z,82.5055
2023-04-18T07:27:42.404Z,82.6708
2023-04-18T07:28:43.632Z,82.6716
2023-04-18T07:29:44.782Z,82.3656
2023-04-18T07:30:45.949Z,82.5033
2023-04-18T07:31:47.112Z,82.6163
2023-04-18T07:32:48.331Z,82.6855
2023-04-18T07:33:49.487Z,82.8475
2023-04-18T07:34:50.693Z,82.6043
2023-04-18T07:35:51.847Z,82.5579
2023-04-18T07:36:53.044Z,82.6329
2023-04-18T07:37:54.219Z,82.6223
2023-04-18T07:38:55.381Z,82.7471
2023-04-18T07:39:56.578Z,82.5595
2023-04-18T07:40:57.725Z,82.2387
2023-04-18T07:41:58.942Z,81.9196
2023-04-18T07:43:00.146Z,82.0643
2023-04-18T07:44:01.308Z,82.2307
2023-04-18T07:45:02.450Z,81.8960
2023-04-18T07:46:03.679Z,81.8456
2023-04-18T07:47:04.881Z,82.0084
2023-04-18T07:48:06.060Z,81.7170
2023-04-18T07:49:07.186Z,81.6657
2023-04-18T07:50:08.369Z,81.8406
2023-04-18T07:51:09.569Z,81.9978
2023-04-18T07:52:10.753Z,82.0086
2023-04-18T07:53:11.931Z,81.7227
2023-04-18T07:54:13.139Z,81.6225
2023-04-18T07:55:14.304Z,81.2317
2023-04-18T07:56:15.536Z,81.2499
2023-04-18T07:57:16.626Z,81.2235
2023-04-18T07:58:17.788Z,81.2421
2023-04-18T07:59:18.986Z,80.4546
2023-04-18T08:00:20.118Z,80.7366
2023-04-18T08:01:21.352Z,80.5573
2023-04-18T08:02:22.596Z,79.8857
2023-04-18T08:03:24.035Z,79.2240
2023-04-18T08:04:27.575Z,79.5310
2023-04-18T08:05:27.770Z,79.6783
2023-04-18T08:06:29.024Z,79.7059
2023-04-18T08:07:30.176Z,78.8203
2023-04-18T08:08:31.322Z,79.1422
2023-04-18T08:09:32.483Z,79.2445
2023-04-18T08:10:33.714Z,79.2380
2023-04-18T08:11:35.004Z,78.5280
2023-04-18T08:12:36.157Z,78.4091
2023-04-18T08:13:37.343Z,78.1634
2023-04-18T08:14:38.523Z,78.2997
2023-04-18T08:15:39.811Z,78.3559
2023-04-18T08:16:41.036Z,78.1359
2023-04-18T08:17:42.315Z,77.0233
2023-04-18T08:18:43.505Z,76.9897
2023-04-18T08:19:44.718Z,77.8909
2023-04-18T08:20:45.886Z,78.0736
2023-04-18T08:21:47.028Z,77.7758
2023-04-18T08:23:04.843Z,77.4993
2023-04-18T08:23:49.990Z,76.5114
2023-04-18T08:25:03.860Z,77.1119
2023-04-18T08:25:52.973Z,77.8704
2023-04-18T08:26:54.236Z,77.9230
2023-04-18T08:27:55.426Z,78.3725
2023-04-18T08:28:56.597Z,78.4153
2023-04-18T08:29:57.771Z,78.4235
2023-04-18T08:30:58.939Z,78.2824
2023-04-18T08:32:00.162Z,79.1776
2023-04-18T08:33:01.581Z,79.3915
2023-04-18T08:34:04.528Z,79.1856
2023-04-18T08:35:03.782Z,79.0612
2023-04-18T08:36:04.925Z,78.4880
2023-04-18T08:37:06.073Z,78.7892
2023-04-18T08:38:07.325Z,78.9088
2023-04-18T08:39:08.514Z,78.9035
2023-04-18T08:40:09.723Z,78.7220
2023-04-18T08:41:10.866Z,78.6615
2023-04-18T08:42:12.069Z,78.7744
2023-04-18T08:43:13.258Z,78.7569
2023-04-18T08:44:14.602Z,78.6948
2023-04-18T08:45:16.004Z,78.4608
2023-04-18T08:46:17.242Z,78.5471
2023-04-18T08:47:18.460Z,78.2618
2023-04-18T08:48:19.840Z,77.9532
2023-04-18T08:49:21.036Z,78.3279
2023-04-18T08:50:22.200Z,78.1167
2023-04-18T08:51:23.339Z,77.5970
2023-04-18T08:52:24.547Z,77.3701
2023-04-18T08:53:25.725Z,77.2225
2023-04-18T08:54:27.488Z,76.9219
2023-04-18T08:55:28.813Z,77.0051
2023-04-18T08:56:29.990Z,76.8227
2023-04-18T08:57:31.211Z,76.6358
2023-04-18T08:58:32.447Z,76.8090
2023-04-18T08:59:33.633Z,76.8072
2023-04-18T09:00:34.739Z,77.2238
2023-04-18T09:01:35.942Z,77.5051
2023-04-18T09:02:37.195Z,77.7599
2023-04-18T09:03:38.567Z,77.6366
2023-04-18T09:04:39.858Z,77.5120
2023-04-18T09:05:41.000Z,77.0441
2023-04-18T09:06:42.166Z,76.7752
2023-04-18T09:07:43.321Z,76.7801
2023-04-18T09:08:44.519Z,76.6856
2023-04-18T09:09:45.662Z,76.4093
2023-04-18T09:10:46.922Z,76.1274
2023-04-18T09:11:48.085Z,76.0566
2023-04-18T09:12:49.302Z,76.1361
2023-04-18T09:13:50.542Z,75.6598
2023-04-18T09:14:51.683Z,75.7378
2023-04-18T09:15:52.917Z,75.5027
2023-04-18T09:16:54.068Z,75.3886
2023-04-18T09:17:55.291Z,75.0875
2023-04-18T09:18:56.459Z,75.3606
2023-04-18T09:19:57.590Z,75.3389
2023-04-18T09:20:58.784Z,76.3475
2023-04-18T09:21:59.946Z,76.2962
2023-04-18T09:23:01.109Z,76.1354
2023-04-18T09:24:02.297Z,75.7429
2023-04-18T09:25:03.483Z,75.1782
2023-04-18T09:26:04.663Z,76.0249
2023-04-18T09:27:05.794Z,75.9035
2023-04-18T09:28:06.951Z,75.6069
2023-04-18T09:29:08.150Z,75.4115
2023-04-18T09:30:09.325Z,74.7583
2023-04-18T09:31:10.474Z,74.7690
2023-04-18T09:32:11.608Z,74.7526
2023-04-18T09:33:12.734Z,74.7975
2023-04-18T09:34:14.134Z,73.9240
2023-04-18T09:35:15.670Z,74.0608
2023-04-18T09:36:16.887Z,74.0620
2023-04-18T09:37:17.993Z,74.6193
2023-04-18T09:38:19.187Z,74.6501
2023-04-18T09:39:20.297Z,74.7221
2023-04-18T09:40:21.439Z,74.4939
2023-04-18T09:41:22.575Z,74.0433
2023-04-18T09:42:24.083Z,74.6057
2023-04-18T09:43:25.776Z,74.3084
2023-04-18T09:44:26.937Z,73.5897
2023-04-18T09:45:28.198Z,73.4799
2023-04-18T09:46:29.372Z,73.6473
2023-04-18T09:47:30.540Z,74.1882
2023-04-18T09:48:31.675Z,74.1032
2023-04-18T09:49:32.845Z,74.1111
2023-04-18T09:50:34.004Z,74.7418
2023-04-18T09:51:35.164Z,75.2676
2023-04-18T09:52:36.283Z,75.1498
2023-04-18T09:53:37.417Z,75.5312
2023-04-18T09:54:38.551Z,75.2736
2023-04-18T09:55:39.714Z,74.2972
2023-04-18T09:56:40.841Z,74.5185
2023-04-18T09:57:41.967Z,74.9469
2023-04-18T09:58:43.105Z,74.9402
2023-04-18T09:59:44.328Z,74.3205
2023-04-18T10:00:46.901Z,74.1368
2023-04-18T10:01:45.829Z,72.9711
2023-04-18T10:02:47.033Z,72.7244
2023-04-18T10:03:48.471Z,72.5759
2023-04-18T10:04:50.035Z,71.9172
2023-04-18T10:05:51.312Z,71.4567
2023-04-18T10:06:52.476Z,71.9207
2023-04-18T10:07:53.607Z,71.3688
2023-04-18T10:08:54.735Z,72.0044
2023-04-18T10:09:55.879Z,71.7069
2023-04-18T10:10:56.990Z,71.9656
2023-04-18T10:11:58.113Z,71.8484
2023-04-18T10:12:59.217Z,71.9499
2023-04-18T10:14:00.328Z,72.3128
2023-04-18T10:15:02.150Z,72.1632
2023-04-18T10:16:03.288Z,71.6360
2023-04-18T10:17:04.410Z,71.4946
2023-04-18T10:18:06.446Z,71.8453
2023-04-18T10:19:07.963Z,71.7202
2023-04-18T10:20:09.111Z,72.5019
2023-04-18T10:21:10.229Z,72.6385
2023-04-18T10:22:11.410Z,72.2594
2023-04-18T10:23:12.625Z,71.6542
2023-04-18T10:24:13.874Z,71.1630
2023-04-18T10:25:15.499Z,70.6493
2023-04-18T10:26:16.814Z,69.8417
2023-04-18T10:27:18.030Z,70.9612
2023-04-18T10:28:19.161Z,71.8703
2023-04-18T10:29:20.298Z,71.8275
2023-04-18T10:30:21.534Z,71.7951
2023-04-18T10:31:22.857Z,72.9889
2023-04-18T10:32:24.129Z,73.9031
2023-04-18T10:33:30.894Z,73.6020
2023-04-18T10:34:26.945Z,73.3078
2023-04-18T10:35:28.065Z,73.9879
2023-04-18T10:36:29.275Z,73.7451
2023-04-18T10:37:30.308Z,73.2032
2023-04-18T10:38:31.418Z,73.2132
2023-04-18T10:39:32.556Z,73.0106
2023-04-18T10:40:33.733Z,72.8178
2023-04-18T10:41:34.843Z,72.4774
2023-04-18T10:42:35.964Z,72.2300
2023-04-18T10:43:37.117Z,72.3365
2023-04-18T10:44:38.280Z,72.7267
2023-04-18T10:45:39.411Z,72.6423
2023-04-18T10:46:40.597Z,72.4060
2023-04-18T10:47:41.908Z,72.5750
2023-04-18T10:48:43.133Z,72.4094
2023-04-18T10:49:44.268Z,71.6905
2023-04-18T10:50:45.373Z,70.5589
2023-04-18T10:51:46.471Z,71.2255
2023-04-18T10:52:47.635Z,69.9570
2023-04-18T10:53:48.760Z,71.2260
2023-04-18T10:54:49.920Z,71.1512
2023-04-18T10:55:51.052Z,72.2503
2023-04-18T10:56:52.194Z,72.2338
2023-04-18T10:57:53.302Z,72.4532
2023-04-18T10:58:54.484Z,71.9832
2023-04-18T10:59:55.542Z,71.1774
2023-04-18T11:00:56.805Z,69.4487
2023-04-18T11:01:57.988Z,68.8916
2023-04-18T11:02:59.209Z,67.6568
2023-04-18T11:04:00.517Z,66.5867
2023-04-18T11:05:01.884Z,67.2456
2023-04-18T11:06:03.003Z,68.9884
2023-04-18T11:07:04.734Z,69.0295
2023-04-18T11:08:05.824Z,68.7467
2023-04-18T11:09:06.953Z,69.2373
2023-04-18T11:10:08.007Z,69.0870
2023-04-18T11:11:09.143Z,69.2785
2023-04-18T11:12:10.263Z,70.0620
2023-04-18T11:13:11.379Z,70.0587
2023-04-18T11:14:12.602Z,70.1411
2023-04-18T11:15:14.523Z,69.9878
2023-04-18T11:16:15.926Z,70.5958
2023-04-18T11:17:17.060Z,70.3381
2023-04-18T11:18:18.183Z,69.8566
2023-04-18T11:19:19.326Z,69.1689
2023-04-18T11:20:20.418Z,68.2226
2023-04-18T11:21:21.567Z,68.2193
2023-04-18T11:22:22.687Z,67.5962
2023-04-18T11:23:23.839Z,69.0562
2023-04-18T11:24:24.937Z,68.5160
2023-04-18T11:25:26.078Z,68.1514
2023-04-18T11:26:27.218Z,68.3701
2023-04-18T11:27:28.345Z,68.8179
2023-04-18T11:28:29.460Z,69.8186
2023-04-18T11:29:30.574Z,69.9797
2023-04-18T11:30:31.927Z,70.1260
2023-04-18T11:31:33.060Z,70.1961
2023-04-18T11:32:34.589Z,69.9994
2023-04-18T11:33:35.786Z,70.1916
2023-04-18T11:34:36.852Z,69.6027
2023-04-18T11:35:37.997Z,69.4954
2023-04-18T11:36:39.155Z,69.3243
2023-04-18T11:37:40.326Z,68.9947
2023-04-18T11:38:41.714Z,68.5671
2023-04-18T11:39:42.906Z,68.7731
2023-04-18T11:40:44.072Z,70.0842
2023-04-18T11:41:45.262Z,70.4769
2023-04-18T11:42:46.414Z,70.3893
2023-04-18T11:43:47.578Z,68.1153
2023-04-18T11:44:48.698Z,67.9333
2023-04-18T11:45:49.939Z,68.4177
2023-04-18T11:46:51.146Z,67.6648
2023-04-18T11:47:52.349Z,67.3633
2023-04-18T11:48:53.496Z,67.0051
2023-04-18T11:49:56.907Z,64.4753
2023-04-18T11:50:55.603Z,64.0042
2023-04-18T11:51:56.744Z,64.7927
2023-04-18T11:52:57.884Z,64.3651
2023-04-18T11:53:59.031Z,64.0188
2023-04-18T11:55:00.182Z,64.1086
2023-04-18T11:56:01.266Z,62.4227
2023-04-18T11:57:02.378Z,59.4865
2023-04-18T11:58:03.512Z,59.6346
2023-04-18T11:59:04.631Z,60.4296
2023-04-18T12:00:05.746Z,61.2916
2023-04-18T12:01:06.845Z,63.8897
2023-04-18T12:02:16.034Z,66.1852
2023-04-18T12:03:11.771Z,66.3203
2023-04-18T12:04:12.141Z,64.8182
2023-04-18T12:05:13.918Z,63.5720
2023-04-18T12:06:15.510Z,61.6243
2023-04-18T12:07:16.587Z,61.5386
2023-04-18T12:08:17.730Z,60.2672
2023-04-18T12:09:18.833Z,59.8954
2023-04-18T12:10:19.928Z,59.3256
2023-04-18T12:11:21.031Z,56.9105
2023-04-18T12:12:22.182Z,59.7454
2023-04-18T12:13:23.247Z,59.5034
2023-04-18T12:14:24.392Z,60.1948
2023-04-18T12:15:25.634Z,60.4330
2023-04-18T12:16:26.896Z,61.1039
2023-04-18T12:17:28.019Z,61.4007
2023-04-18T12:18:29.163Z,60.7505
2023-04-18T12:19:30.309Z,61.2211